Аэропорт: Николаевск-на-Амуре. Николаевск-на-Амуре

ICAO: UHNN

METAR:
2013/07/19 07:30
UHNN 190730Z 13008G13MPS 9999 FEW033 22/16 Q1010 NOSIG RMK QFE753 110///60
METAR:
2013/02/22 00:12
TAF UHNN 222245Z 2200/2309 25005G10MPS 9999 BKN070